Pritchett, Texas
Current Conditions -  °F | °C
As of 8:35 AM on Monday 20 Oct 2014 (Local Time) from KJDD Reporting Station
Clear Clear  
Wind Chill: 11°   Ceiling: Unl
Heat Index: 11°   Visibility: 10mi
Dew Point: 11°   Wind: 0mph
Humidity: 100%   Direction: NA
Pressure: 30.12"   Gusts: NA
Location:  32.6267°N, 95.0888°W
Report Text: KJDD 201335Z AUTO 00000KT 10SM CLR 11/11 A3012 RMK AO2
Loading
Personal Weather Stations






























Interactive Weather Map
Tropical Storm Tracking
New forecast layout! Learn more

10-Day Weather Forecast

Advertisements
Track Severe Weather on mobile